Terminal Aerodrome Forecast
Issued by NWS

Home | Current Version | Previous Version | Text Only | Print | Product List | Glossary On
Versions: 1 2 3 4 5 6 7 8 9 10 11 12 13 14 15 16 17 18 19 20 21 22 23 24 25 26 27 28 29 30 31 32 33 34 35
000
FTUS43 KDMX 272334
TAFFOD
TAF
KFOD 272334Z 2800/2824 11006KT P6SM OVC050
     FM280400 15011KT P6SM -SHSN BKN035
     FM280900 16012KT P6SM BKN025
     FM281500 19012KT P6SM SCT025 BKN080
     FM282300 15007KT P6SM OVC035=

USA.gov is the U.S. government's official web portal to all federal, state and local government web resources and services.